createdAt,value
2019-05-25T00:00:30.587Z,0.00
2019-05-25T00:01:30.561Z,0.00
2019-05-25T00:02:30.532Z,0.00
2019-05-25T00:03:30.507Z,0.00
2019-05-25T00:04:30.480Z,0.00
2019-05-25T00:05:30.483Z,0.00
2019-05-25T00:06:30.487Z,0.00
2019-05-25T00:07:30.403Z,0.00
2019-05-25T00:08:30.397Z,0.00
2019-05-25T00:09:30.352Z,0.00
2019-05-25T00:10:30.327Z,0.00
2019-05-25T00:11:30.300Z,0.00
2019-05-25T00:12:30.273Z,0.00
2019-05-25T00:13:30.249Z,0.00
2019-05-25T00:14:30.223Z,0.00
2019-05-25T00:15:30.199Z,0.00
2019-05-25T00:16:30.172Z,0.00
2019-05-25T00:17:30.146Z,0.00
2019-05-25T00:18:30.119Z,0.00
2019-05-25T00:19:30.096Z,0.00
2019-05-25T00:20:30.069Z,0.00
2019-05-25T00:21:30.042Z,0.00
2019-05-25T00:22:30.015Z,0.00
2019-05-25T00:23:29.991Z,0.00
2019-05-25T00:24:29.969Z,0.00
2019-05-25T00:25:29.941Z,0.00
2019-05-25T00:26:29.915Z,0.00
2019-05-25T00:27:29.889Z,0.00
2019-05-25T00:28:29.861Z,0.00
2019-05-25T00:29:29.836Z,0.00
2019-05-25T00:30:29.811Z,0.00
2019-05-25T00:31:29.786Z,0.00
2019-05-25T00:32:29.764Z,0.00
2019-05-25T00:33:29.739Z,0.00
2019-05-25T00:34:29.712Z,0.00
2019-05-25T00:35:29.685Z,0.00
2019-05-25T00:36:29.664Z,0.00
2019-05-25T00:37:29.635Z,0.00
2019-05-25T00:38:29.612Z,0.00
2019-05-25T00:39:29.586Z,0.00
2019-05-25T00:40:29.558Z,0.00
2019-05-25T00:41:29.531Z,0.00
2019-05-25T00:42:29.506Z,0.00
2019-05-25T00:43:29.482Z,0.00
2019-05-25T00:44:29.455Z,0.00
2019-05-25T00:45:29.435Z,0.00
2019-05-25T00:46:29.404Z,0.00
2019-05-25T00:47:29.378Z,0.00
2019-05-25T00:48:29.353Z,0.00
2019-05-25T00:49:29.327Z,0.00
2019-05-25T00:50:29.301Z,0.00
2019-05-25T00:51:29.275Z,0.00
2019-05-25T00:52:29.250Z,0.00
2019-05-25T00:53:29.224Z,0.00
2019-05-25T00:54:29.200Z,0.00
2019-05-25T00:55:29.176Z,0.00
2019-05-25T00:56:29.151Z,0.00
2019-05-25T00:57:29.125Z,0.00
2019-05-25T00:58:29.099Z,0.00
2019-05-25T00:59:29.072Z,0.00
2019-05-25T01:00:29.049Z,0.00
2019-05-25T01:01:29.023Z,0.00
2019-05-25T01:02:28.997Z,0.00
2019-05-25T01:03:28.972Z,0.00
2019-05-25T01:04:28.948Z,0.00
2019-05-25T01:05:28.920Z,0.00
2019-05-25T01:06:28.900Z,0.00
2019-05-25T01:07:28.932Z,0.00
2019-05-25T01:08:28.856Z,0.00
2019-05-25T01:09:28.821Z,0.00
2019-05-25T01:10:28.796Z,0.00
2019-05-25T01:11:28.771Z,0.00
2019-05-25T01:12:28.747Z,0.00
2019-05-25T01:13:28.721Z,0.00
2019-05-25T01:14:28.695Z,0.00
2019-05-25T01:15:28.672Z,0.00
2019-05-25T01:16:28.646Z,0.00
2019-05-25T01:17:28.621Z,0.00
2019-05-25T01:18:28.596Z,0.00
2019-05-25T01:19:28.570Z,0.00
2019-05-25T01:20:28.544Z,0.00
2019-05-25T01:21:28.519Z,0.00
2019-05-25T01:22:28.500Z,0.00
2019-05-25T01:23:28.474Z,0.00
2019-05-25T01:24:43.389Z,0.00
2019-05-25T01:25:28.421Z,0.00
2019-05-25T01:26:28.393Z,0.00
2019-05-25T01:27:28.376Z,0.00
2019-05-25T01:28:28.345Z,0.00
2019-05-25T01:29:28.317Z,0.00
2019-05-25T01:30:28.325Z,0.00
2019-05-25T01:31:28.268Z,0.00
2019-05-25T01:32:28.242Z,0.00
2019-05-25T01:33:28.218Z,0.00
2019-05-25T01:34:28.192Z,0.00
2019-05-25T01:35:28.168Z,0.00
2019-05-25T01:36:28.142Z,0.00
2019-05-25T01:37:28.118Z,0.00
2019-05-25T01:38:28.092Z,0.00
2019-05-25T01:39:28.066Z,0.00
2019-05-25T01:40:28.043Z,0.00
2019-05-25T01:41:28.016Z,0.00
2019-05-25T01:42:27.991Z,0.00
2019-05-25T01:43:27.968Z,0.00
2019-05-25T01:44:27.941Z,0.00
2019-05-25T01:45:27.914Z,0.00
2019-05-25T01:46:27.890Z,0.00
2019-05-25T01:47:27.865Z,0.00
2019-05-25T01:48:27.841Z,0.00
2019-05-25T01:49:27.816Z,0.00
2019-05-25T01:50:27.790Z,0.00
2019-05-25T01:51:27.764Z,0.00
2019-05-25T01:52:27.742Z,0.00
2019-05-25T01:53:27.723Z,0.00
2019-05-25T01:54:27.689Z,0.00
2019-05-25T01:55:27.667Z,0.00
2019-05-25T01:56:27.666Z,0.00
2019-05-25T01:57:27.618Z,0.00
2019-05-25T01:58:27.588Z,0.00
2019-05-25T01:59:27.566Z,0.00
2019-05-25T02:00:27.538Z,0.00
2019-05-25T02:01:27.518Z,0.00
2019-05-25T02:02:27.491Z,0.00
2019-05-25T02:03:27.462Z,0.00
2019-05-25T02:04:27.437Z,0.00
2019-05-25T02:05:27.414Z,0.00
2019-05-25T02:06:27.385Z,0.00
2019-05-25T02:07:27.363Z,0.00
2019-05-25T02:08:27.338Z,0.00
2019-05-25T02:09:27.311Z,0.00
2019-05-25T02:10:27.286Z,0.00
2019-05-25T02:11:27.263Z,0.00
2019-05-25T02:12:27.236Z,0.00
2019-05-25T02:13:27.281Z,0.00
2019-05-25T02:14:27.186Z,0.00
2019-05-25T02:15:27.160Z,0.00
2019-05-25T02:16:27.139Z,0.00
2019-05-25T02:17:27.109Z,0.00
2019-05-25T02:18:27.086Z,0.00
2019-05-25T02:19:27.060Z,4.00
2019-05-25T02:20:27.036Z,0.00
2019-05-25T02:21:27.009Z,0.00
2019-05-25T02:22:26.984Z,0.00
2019-05-25T02:23:26.960Z,0.00
2019-05-25T02:24:26.934Z,0.00
2019-05-25T02:25:26.906Z,4.00
2019-05-25T02:26:26.883Z,4.00
2019-05-25T02:27:26.860Z,0.00
2019-05-25T02:28:26.833Z,4.00
2019-05-25T02:29:26.805Z,4.00
2019-05-25T02:30:26.786Z,4.00
2019-05-25T02:31:26.758Z,4.00
2019-05-25T02:32:26.733Z,8.00
2019-05-25T02:33:26.707Z,8.00
2019-05-25T02:34:26.680Z,8.00
2019-05-25T02:35:26.656Z,12.00
2019-05-25T02:36:26.637Z,12.00
2019-05-25T02:37:26.605Z,12.00
2019-05-25T02:38:26.579Z,16.00
2019-05-25T02:39:26.705Z,24.00
2019-05-25T02:40:26.531Z,24.00
2019-05-25T02:41:26.504Z,24.00
2019-05-25T02:42:26.478Z,28.00
2019-05-25T02:43:26.457Z,32.00
2019-05-25T02:44:26.435Z,36.00
2019-05-25T02:45:26.402Z,40.00
2019-05-25T02:46:26.377Z,48.00
2019-05-25T02:47:26.354Z,56.00
2019-05-25T02:48:26.327Z,60.00
2019-05-25T02:49:26.332Z,64.00
2019-05-25T02:50:26.276Z,68.00
2019-05-25T02:51:26.250Z,72.00
2019-05-25T02:52:26.234Z,80.00
2019-05-25T02:53:26.199Z,92.00
2019-05-25T02:54:26.174Z,104.00
2019-05-25T02:55:34.397Z,116.00
2019-05-25T02:56:26.123Z,128.00
2019-05-25T02:57:26.097Z,140.00
2019-05-25T02:58:26.073Z,156.00
2019-05-25T02:59:26.047Z,172.00
2019-05-25T03:00:26.023Z,196.00
2019-05-25T03:01:26.002Z,216.00
2019-05-25T03:02:25.970Z,244.00
2019-05-25T03:03:26.013Z,268.00
2019-05-25T03:04:25.920Z,296.00
2019-05-25T03:05:25.894Z,324.00
2019-05-25T03:06:25.869Z,360.00
2019-05-25T03:07:25.845Z,392.00
2019-05-25T03:08:25.825Z,424.00
2019-05-25T03:09:25.792Z,452.00
2019-05-25T03:10:25.766Z,480.00
2019-05-25T03:11:25.742Z,508.00
2019-05-25T03:12:25.727Z,540.00
2019-05-25T03:13:25.691Z,564.00
2019-05-25T03:14:25.666Z,592.00
2019-05-25T03:15:25.641Z,624.00
2019-05-25T03:16:25.616Z,672.00
2019-05-25T03:17:25.592Z,724.00
2019-05-25T03:18:25.567Z,792.00
2019-05-25T03:19:25.538Z,860.00
2019-05-25T03:20:25.512Z,916.00
2019-05-25T03:21:25.487Z,948.00
2019-05-25T03:22:25.464Z,976.00
2019-05-25T03:23:25.438Z,1060.00
2019-05-25T03:24:25.431Z,1232.00
2019-05-25T03:25:25.386Z,1392.00
2019-05-25T03:26:25.361Z,1468.00
2019-05-25T03:27:25.336Z,1512.00
2019-05-25T03:28:25.311Z,1520.00
2019-05-25T03:29:25.301Z,1456.00
2019-05-25T03:30:25.260Z,1344.00
2019-05-25T03:31:25.246Z,1240.00
2019-05-25T03:32:25.225Z,1180.00
2019-05-25T03:33:25.191Z,1156.00
2019-05-25T03:34:25.211Z,1124.00
2019-05-25T03:35:25.133Z,1056.00
2019-05-25T03:36:25.107Z,980.00
2019-05-25T03:37:25.102Z,956.00
2019-05-25T03:38:25.058Z,972.00
2019-05-25T03:39:25.033Z,904.00
2019-05-25T03:40:25.049Z,832.00
2019-05-25T03:41:24.984Z,872.00
2019-05-25T03:42:24.955Z,1016.00
2019-05-25T03:43:24.931Z,1016.00
2019-05-25T03:44:24.905Z,1052.00
2019-05-25T03:45:24.878Z,1188.00
2019-05-25T03:46:24.857Z,1276.00
2019-05-25T03:47:24.827Z,1328.00
2019-05-25T03:48:24.805Z,1396.00
2019-05-25T03:49:24.777Z,1440.00
2019-05-25T03:50:24.752Z,1488.00
2019-05-25T03:51:24.726Z,1572.00
2019-05-25T03:52:24.701Z,1540.00
2019-05-25T03:53:24.675Z,1452.00
2019-05-25T03:54:24.649Z,1448.00
2019-05-25T03:55:24.626Z,1368.00
2019-05-25T03:56:24.607Z,1340.00
2019-05-25T03:57:24.573Z,1372.00
2019-05-25T03:58:24.549Z,1412.00
2019-05-25T03:59:24.524Z,1400.00
2019-05-25T04:00:24.503Z,1432.00
2019-05-25T04:01:24.473Z,1516.00
2019-05-25T04:02:24.447Z,1488.00
2019-05-25T04:03:24.425Z,1504.00
2019-05-25T04:04:24.398Z,1536.00
2019-05-25T04:05:24.371Z,1564.00
2019-05-25T04:06:24.345Z,1624.00
2019-05-25T04:07:24.324Z,1648.00
2019-05-25T04:08:24.297Z,1648.00
2019-05-25T04:09:24.268Z,1660.00
2019-05-25T04:10:24.245Z,1744.00
2019-05-25T04:11:24.220Z,1844.00
2019-05-25T04:12:24.193Z,1916.00
2019-05-25T04:13:24.168Z,1928.00
2019-05-25T04:14:24.142Z,1924.00
2019-05-25T04:15:24.120Z,1968.00
2019-05-25T04:16:24.095Z,2056.00
2019-05-25T04:17:24.091Z,2144.00
2019-05-25T04:18:24.042Z,2284.00
2019-05-25T04:19:24.017Z,2424.00
2019-05-25T04:20:23.993Z,2504.00
2019-05-25T04:21:23.967Z,2516.00
2019-05-25T04:22:23.953Z,2544.00
2019-05-25T04:23:23.918Z,2624.00
2019-05-25T04:24:23.893Z,2760.00
2019-05-25T04:25:23.866Z,2912.00
2019-05-25T04:26:23.842Z,2968.00
2019-05-25T04:27:23.816Z,3056.00
2019-05-25T04:28:23.797Z,3192.00
2019-05-25T04:29:23.767Z,3276.00
2019-05-25T04:30:23.742Z,3380.00
2019-05-25T04:31:23.717Z,3404.00
2019-05-25T04:32:23.692Z,3452.00
2019-05-25T04:33:23.668Z,3628.00
2019-05-25T04:34:23.641Z,3804.00
2019-05-25T04:35:23.615Z,4004.00
2019-05-25T04:36:23.589Z,4268.00
2019-05-25T04:37:23.566Z,4700.00
2019-05-25T04:38:23.540Z,5224.00
2019-05-25T04:39:23.515Z,5772.00
2019-05-25T04:40:23.498Z,6376.00
2019-05-25T04:41:23.463Z,7040.00
2019-05-25T04:42:23.439Z,7632.00
2019-05-25T04:43:23.414Z,8004.00
2019-05-25T04:44:23.394Z,8184.00
2019-05-25T04:45:23.369Z,8428.00
2019-05-25T04:46:23.341Z,8612.00
2019-05-25T04:47:26.869Z,8804.00
2019-05-25T04:48:23.292Z,8844.00
2019-05-25T04:49:23.265Z,9096.00
2019-05-25T04:50:23.242Z,9480.00
2019-05-25T04:51:23.220Z,9948.00
2019-05-25T04:52:23.193Z,10528.00
2019-05-25T04:53:23.170Z,11252.00
2019-05-25T04:54:23.144Z,11852.00
2019-05-25T04:55:23.119Z,12176.00
2019-05-25T04:56:38.142Z,12528.00
2019-05-25T04:57:23.071Z,12816.00
2019-05-25T04:58:23.045Z,13104.00
2019-05-25T04:59:23.019Z,13416.00
2019-05-25T05:00:22.997Z,13816.00
2019-05-25T05:01:22.969Z,14132.00
2019-05-25T05:02:22.948Z,14404.00
2019-05-25T05:03:22.942Z,14644.00
2019-05-25T05:04:22.898Z,14564.00
2019-05-25T05:05:22.872Z,13824.00
2019-05-25T05:06:22.850Z,12580.00
2019-05-25T05:07:22.824Z,11484.00
2019-05-25T05:08:22.802Z,10400.00
2019-05-25T05:09:22.775Z,9420.00
2019-05-25T05:10:22.752Z,8628.00
2019-05-25T05:11:22.736Z,8196.00
2019-05-25T05:12:22.705Z,8284.00
2019-05-25T05:13:22.682Z,8284.00
2019-05-25T05:14:22.657Z,8184.00
2019-05-25T05:15:22.633Z,8040.00
2019-05-25T05:16:22.609Z,7636.00
2019-05-25T05:17:22.585Z,7688.00
2019-05-25T05:18:22.562Z,8160.00
2019-05-25T05:19:22.536Z,8940.00
2019-05-25T05:20:22.518Z,9496.00
2019-05-25T05:21:22.489Z,9680.00
2019-05-25T05:22:22.466Z,9428.00
2019-05-25T05:23:22.443Z,8816.00
2019-05-25T05:24:22.417Z,8460.00
2019-05-25T05:25:22.395Z,9360.00
2019-05-25T05:26:22.401Z,10640.00
2019-05-25T05:27:22.346Z,11704.00
2019-05-25T05:28:22.324Z,11352.00
2019-05-25T05:29:22.297Z,10180.00
2019-05-25T05:30:22.275Z,9744.00
2019-05-25T05:31:23.787Z,9920.00
2019-05-25T05:32:27.458Z,9132.00
2019-05-25T05:33:22.209Z,8136.00
2019-05-25T05:34:22.179Z,7340.00
2019-05-25T05:35:22.157Z,7112.00
2019-05-25T05:36:22.135Z,7052.00
2019-05-25T05:37:22.109Z,6872.00
2019-05-25T05:38:22.087Z,6212.00
2019-05-25T05:39:22.061Z,6060.00
2019-05-25T05:40:22.041Z,7784.00
2019-05-25T05:41:22.012Z,9340.00
2019-05-25T05:42:21.990Z,9588.00
2019-05-25T05:43:21.966Z,9404.00
2019-05-25T05:44:21.942Z,9084.00
2019-05-25T05:45:21.918Z,8924.00
2019-05-25T05:46:21.896Z,9092.00
2019-05-25T05:47:21.873Z,8800.00
2019-05-25T05:48:21.848Z,8140.00
2019-05-25T05:49:21.822Z,7800.00
2019-05-25T05:50:21.800Z,8472.00
2019-05-25T05:51:21.777Z,9452.00
2019-05-25T05:52:21.754Z,10728.00
2019-05-25T05:53:21.728Z,11784.00
2019-05-25T05:54:21.704Z,12716.00
2019-05-25T05:55:21.683Z,12960.00
2019-05-25T05:56:21.655Z,13156.00
2019-05-25T05:57:21.634Z,13340.00
2019-05-25T05:58:21.611Z,13692.00
2019-05-25T05:59:21.585Z,14336.00
2019-05-25T06:00:21.563Z,15348.00
2019-05-25T06:01:21.538Z,15972.00
2019-05-25T06:02:21.517Z,15864.00
2019-05-25T06:03:21.493Z,15836.00
2019-05-25T06:04:21.470Z,16328.00
2019-05-25T06:05:21.445Z,17888.00
2019-05-25T06:06:21.432Z,18784.00
2019-05-25T06:07:21.397Z,19072.00
2019-05-25T06:08:21.376Z,19968.00
2019-05-25T06:09:21.351Z,20448.00
2019-05-25T06:10:21.331Z,20032.00
2019-05-25T06:11:21.306Z,19424.00
2019-05-25T06:12:21.282Z,18624.00
2019-05-25T06:13:21.258Z,17184.00
2019-05-25T06:14:21.235Z,15648.00
2019-05-25T06:15:21.214Z,15096.00
2019-05-25T06:16:21.197Z,15804.00
2019-05-25T06:17:21.168Z,16404.00
2019-05-25T06:18:21.149Z,16500.00
2019-05-25T06:19:21.122Z,16076.00
2019-05-25T06:20:21.101Z,15776.00
2019-05-25T06:21:21.076Z,15400.00
2019-05-25T06:22:21.053Z,14544.00
2019-05-25T06:23:21.031Z,13304.00
2019-05-25T06:24:21.015Z,11464.00
2019-05-25T06:25:21.008Z,9732.00
2019-05-25T06:26:20.964Z,8580.00
2019-05-25T06:27:27.623Z,8016.00
2019-05-25T06:28:22.491Z,7216.00
2019-05-25T06:29:20.896Z,6476.00
2019-05-25T06:30:20.876Z,6240.00
2019-05-25T06:31:20.850Z,5880.00
2019-05-25T06:32:20.830Z,5820.00
2019-05-25T06:33:20.804Z,5996.00
2019-05-25T06:34:20.781Z,5900.00
2019-05-25T06:35:20.783Z,5920.00
2019-05-25T06:36:20.736Z,6356.00
2019-05-25T06:37:20.711Z,7172.00
2019-05-25T06:38:20.689Z,7916.00
2019-05-25T06:39:20.667Z,8300.00
2019-05-25T06:40:20.645Z,8356.00
2019-05-25T06:41:20.621Z,7856.00
2019-05-25T06:42:20.601Z,7152.00
2019-05-25T06:43:20.576Z,6956.00
2019-05-25T06:44:20.559Z,6652.00
2019-05-25T06:45:20.526Z,6084.00
2019-05-25T06:46:20.504Z,5836.00
2019-05-25T06:47:20.481Z,6044.00
2019-05-25T06:48:20.460Z,6372.00
2019-05-25T06:49:20.433Z,6316.00
2019-05-25T06:50:20.409Z,7056.00
2019-05-25T06:51:20.389Z,8992.00
2019-05-25T06:52:20.363Z,11832.00
2019-05-25T06:53:20.337Z,13836.00
2019-05-25T06:54:20.315Z,13384.00
2019-05-25T06:55:20.294Z,11996.00
2019-05-25T06:56:20.271Z,11736.00
2019-05-25T06:57:20.243Z,12104.00
2019-05-25T06:58:20.221Z,11108.00
2019-05-25T06:59:20.196Z,9668.00
2019-05-25T07:00:20.179Z,9060.00
2019-05-25T07:01:20.152Z,8584.00
2019-05-25T07:02:22.578Z,8976.00
2019-05-25T07:03:20.103Z,10968.00
2019-05-25T07:04:20.082Z,13084.00
2019-05-25T07:05:20.058Z,14004.00
2019-05-25T07:06:20.032Z,14528.00
2019-05-25T07:07:20.019Z,14700.00
2019-05-25T07:08:19.987Z,14248.00
2019-05-25T07:09:19.964Z,14052.00
2019-05-25T07:10:19.940Z,13776.00
2019-05-25T07:11:19.917Z,12760.00
2019-05-25T07:12:19.897Z,12736.00
2019-05-25T07:13:19.870Z,13572.00
2019-05-25T07:14:19.847Z,14132.00
2019-05-25T07:15:19.824Z,14208.00
2019-05-25T07:16:19.802Z,13688.00
2019-05-25T07:17:19.779Z,13492.00
2019-05-25T07:18:19.755Z,14056.00
2019-05-25T07:19:19.731Z,14908.00
2019-05-25T07:20:19.710Z,15592.00
2019-05-25T07:21:19.684Z,16332.00
2019-05-25T07:22:19.663Z,17152.00
2019-05-25T07:23:19.639Z,17728.00
2019-05-25T07:24:19.617Z,17888.00
2019-05-25T07:25:20.266Z,18016.00
2019-05-25T07:26:19.571Z,17664.00
2019-05-25T07:27:19.551Z,17344.00
2019-05-25T07:28:19.522Z,17216.00
2019-05-25T07:29:19.508Z,17024.00
2019-05-25T07:30:19.477Z,16608.00
2019-05-25T07:31:19.454Z,16244.00
2019-05-25T07:32:19.433Z,16340.00
2019-05-25T07:33:19.408Z,16620.00
2019-05-25T07:34:19.385Z,17056.00
2019-05-25T07:35:19.364Z,17216.00
2019-05-25T07:36:19.339Z,17600.00
2019-05-25T07:37:19.320Z,18400.00
2019-05-25T07:38:19.294Z,19104.00
2019-05-25T07:39:19.277Z,20000.00
2019-05-25T07:40:19.251Z,20928.00
2019-05-25T07:41:19.226Z,21312.00
2019-05-25T07:42:20.135Z,21248.00
2019-05-25T07:43:19.180Z,21632.00
2019-05-25T07:44:19.159Z,22400.00
2019-05-25T07:45:19.136Z,22976.00
2019-05-25T07:46:19.112Z,23264.00
2019-05-25T07:47:19.090Z,23488.00
2019-05-25T07:48:19.069Z,24160.00
2019-05-25T07:49:19.045Z,25312.00
2019-05-25T07:50:19.022Z,26080.00
2019-05-25T07:51:19.001Z,26560.00
2019-05-25T07:52:18.980Z,27104.00
2019-05-25T07:53:18.955Z,27392.00
2019-05-25T07:54:18.935Z,27392.00
2019-05-25T07:55:18.911Z,26720.00
2019-05-25T07:56:18.888Z,25120.00
2019-05-25T07:57:18.867Z,23616.00
2019-05-25T07:58:18.868Z,22816.00
2019-05-25T07:59:18.822Z,22560.00
2019-05-25T08:00:18.813Z,22336.00
2019-05-25T08:01:18.788Z,22304.00
2019-05-25T08:02:18.756Z,22560.00
2019-05-25T08:03:18.736Z,22400.00
2019-05-25T08:04:18.712Z,22208.00
2019-05-25T08:05:18.689Z,22112.00
2019-05-25T08:06:18.668Z,21920.00
2019-05-25T08:07:18.646Z,21248.00
2019-05-25T08:08:18.622Z,20448.00
2019-05-25T08:09:18.600Z,20000.00
2019-05-25T08:10:18.581Z,19520.00
2019-05-25T08:11:18.559Z,18784.00
2019-05-25T08:12:18.536Z,18528.00
2019-05-25T08:13:18.514Z,18496.00
2019-05-25T08:14:18.492Z,18368.00
2019-05-25T08:15:18.469Z,17984.00
2019-05-25T08:16:18.459Z,17856.00
2019-05-25T08:17:18.425Z,17696.00
2019-05-25T08:18:18.404Z,18016.00
2019-05-25T08:19:18.433Z,17920.00
2019-05-25T08:20:18.359Z,17440.00
2019-05-25T08:21:18.336Z,16864.00
2019-05-25T08:22:18.314Z,16872.00
2019-05-25T08:23:18.444Z,16776.00
2019-05-25T08:24:18.269Z,16580.00
2019-05-25T08:25:18.246Z,16404.00
2019-05-25T08:26:18.227Z,16340.00
2019-05-25T08:27:18.204Z,16420.00
2019-05-25T08:28:31.606Z,16316.00
2019-05-25T08:29:18.159Z,16472.00
2019-05-25T08:30:18.139Z,16044.00
2019-05-25T08:31:18.116Z,15528.00
2019-05-25T08:32:18.095Z,17664.00
2019-05-25T08:33:18.071Z,20352.00
2019-05-25T08:34:18.048Z,22176.00
2019-05-25T08:35:18.028Z,23264.00
2019-05-25T08:36:18.006Z,23552.00
2019-05-25T08:37:17.982Z,23552.00
2019-05-25T08:38:17.960Z,23904.00
2019-05-25T08:39:17.938Z,24736.00
2019-05-25T08:40:17.921Z,25312.00
2019-05-25T08:41:17.897Z,25664.00
2019-05-25T08:42:17.874Z,25184.00
2019-05-25T08:43:17.851Z,24992.00
2019-05-25T08:44:17.833Z,25632.00
2019-05-25T08:45:17.806Z,26080.00
2019-05-25T08:46:17.785Z,25984.00
2019-05-25T08:47:17.763Z,25536.00
2019-05-25T08:48:17.753Z,26496.00
2019-05-25T08:49:17.719Z,28448.00
2019-05-25T08:50:17.698Z,29440.00
2019-05-25T08:51:17.676Z,30080.00
2019-05-25T08:52:17.653Z,30784.00
2019-05-25T08:53:21.005Z,31520.00
2019-05-25T08:54:17.608Z,32480.00
2019-05-25T08:55:17.588Z,33440.00
2019-05-25T08:56:17.567Z,33952.00
2019-05-25T08:57:18.700Z,34112.00
2019-05-25T08:58:17.524Z,34624.00
2019-05-25T08:59:17.504Z,35072.00
2019-05-25T09:00:17.483Z,35424.00
2019-05-25T09:01:17.457Z,35488.00
2019-05-25T09:02:17.437Z,35232.00
2019-05-25T09:03:17.427Z,34528.00
2019-05-25T09:04:17.396Z,34944.00
2019-05-25T09:05:17.412Z,35520.00
2019-05-25T09:06:17.352Z,34656.00
2019-05-25T09:07:17.330Z,31968.00
2019-05-25T09:08:17.309Z,28704.00
2019-05-25T09:09:17.288Z,26208.00
2019-05-25T09:10:17.266Z,25024.00
2019-05-25T09:11:17.247Z,24864.00
2019-05-25T09:12:17.225Z,24640.00
2019-05-25T09:13:17.203Z,23136.00
2019-05-25T09:14:17.181Z,21216.00
2019-05-25T09:15:17.265Z,19744.00
2019-05-25T09:16:17.142Z,19424.00
2019-05-25T09:17:17.120Z,20320.00
2019-05-25T09:18:17.099Z,21312.00
2019-05-25T09:19:17.076Z,21696.00
2019-05-25T09:20:17.061Z,22624.00
2019-05-25T09:21:17.036Z,24480.00
2019-05-25T09:22:17.015Z,27008.00
2019-05-25T09:23:16.994Z,29792.00
2019-05-25T09:24:16.973Z,33024.00
2019-05-25T09:25:17.015Z,36768.00
2019-05-25T09:26:16.929Z,42688.00
2019-05-25T09:27:16.909Z,42336.00
2019-05-25T09:28:16.888Z,41696.00
2019-05-25T09:29:16.865Z,44160.00
2019-05-25T09:30:16.846Z,52544.00
2019-05-25T09:31:16.841Z,36928.00
2019-05-25T09:32:16.805Z,30016.00
2019-05-25T09:33:16.782Z,25344.00
2019-05-25T09:34:16.761Z,22880.00
2019-05-25T09:35:16.813Z,21824.00
2019-05-25T09:36:16.722Z,21472.00
2019-05-25T09:37:16.698Z,22176.00
2019-05-25T09:38:16.679Z,23744.00
2019-05-25T09:39:16.660Z,25504.00
2019-05-25T09:40:16.654Z,26720.00
2019-05-25T09:41:16.616Z,26496.00
2019-05-25T09:42:16.595Z,24576.00
2019-05-25T09:43:16.573Z,21920.00
2019-05-25T09:44:16.604Z,20320.00
2019-05-25T09:45:16.539Z,19616.00
2019-05-25T09:46:16.509Z,19328.00
2019-05-25T09:47:16.491Z,18784.00
2019-05-25T09:48:16.468Z,18272.00
2019-05-25T09:49:16.458Z,18240.00
2019-05-25T09:50:16.424Z,19200.00
2019-05-25T09:51:16.413Z,20384.00
2019-05-25T09:52:16.382Z,20960.00
2019-05-25T09:53:16.358Z,21408.00
2019-05-25T09:54:16.337Z,22336.00
2019-05-25T09:55:16.318Z,23584.00
2019-05-25T09:56:16.295Z,24704.00
2019-05-25T09:57:16.274Z,25760.00
2019-05-25T09:58:16.253Z,26336.00
2019-05-25T09:59:20.058Z,27008.00
2019-05-25T10:00:16.207Z,27776.00
2019-05-25T10:01:16.189Z,28256.00
2019-05-25T10:02:16.164Z,28448.00
2019-05-25T10:03:16.144Z,28384.00
2019-05-25T10:04:16.121Z,28672.00
2019-05-25T10:05:16.099Z,29216.00
2019-05-25T10:06:16.080Z,29408.00
2019-05-25T10:07:16.055Z,29120.00
2019-05-25T10:08:16.035Z,28768.00
2019-05-25T10:09:16.013Z,28384.00
2019-05-25T10:10:15.995Z,28288.00
2019-05-25T10:11:15.970Z,28320.00
2019-05-25T10:12:16.383Z,28608.00
2019-05-25T10:13:15.928Z,28544.00
2019-05-25T10:14:15.905Z,27936.00
2019-05-25T10:15:15.884Z,27264.00
2019-05-25T10:16:15.863Z,26464.00
2019-05-25T10:17:15.844Z,25792.00
2019-05-25T10:18:15.821Z,25280.00
2019-05-25T10:19:15.807Z,24800.00
2019-05-25T10:20:15.780Z,23776.00
2019-05-25T10:21:15.757Z,22496.00
2019-05-25T10:22:15.740Z,21888.00
2019-05-25T10:23:15.720Z,21504.00
2019-05-25T10:24:15.695Z,20928.00
2019-05-25T10:25:15.712Z,19456.00
2019-05-25T10:26:15.652Z,17536.00
2019-05-25T10:27:15.630Z,16008.00
2019-05-25T10:28:15.610Z,15664.00
2019-05-25T10:29:15.587Z,15916.00
2019-05-25T10:30:15.575Z,16204.00
2019-05-25T10:31:15.546Z,16144.00
2019-05-25T10:32:15.522Z,15548.00
2019-05-25T10:33:15.503Z,14560.00
2019-05-25T10:34:15.481Z,13704.00
2019-05-25T10:35:15.462Z,13128.00
2019-05-25T10:36:15.437Z,12840.00
2019-05-25T10:37:15.416Z,12800.00
2019-05-25T10:38:15.396Z,12920.00
2019-05-25T10:39:15.381Z,12968.00
2019-05-25T10:40:15.351Z,13204.00
2019-05-25T10:41:15.341Z,13584.00
2019-05-25T10:42:15.308Z,14064.00
2019-05-25T10:43:15.289Z,14816.00
2019-05-25T10:44:15.265Z,15600.00
2019-05-25T10:45:15.242Z,16184.00
2019-05-25T10:46:15.222Z,16516.00
2019-05-25T10:47:15.201Z,16556.00
2019-05-25T10:48:15.178Z,16476.00
2019-05-25T10:49:15.155Z,16452.00
2019-05-25T10:50:15.135Z,16432.00
2019-05-25T10:51:15.114Z,16756.00
2019-05-25T10:52:15.092Z,17504.00
2019-05-25T10:53:15.070Z,18496.00
2019-05-25T10:54:15.046Z,19744.00
2019-05-25T10:55:15.026Z,21056.00
2019-05-25T10:56:15.003Z,22080.00
2019-05-25T10:57:14.983Z,22880.00
2019-05-25T10:58:14.960Z,23936.00
2019-05-25T10:59:14.937Z,25280.00
2019-05-25T11:00:14.917Z,26688.00
2019-05-25T11:01:14.895Z,28160.00
2019-05-25T11:02:14.873Z,29312.00
2019-05-25T11:03:14.852Z,29920.00
2019-05-25T11:04:14.830Z,29760.00
2019-05-25T11:05:14.807Z,29248.00
2019-05-25T11:06:14.784Z,28512.00
2019-05-25T11:07:14.770Z,27392.00
2019-05-25T11:08:14.744Z,25824.00
2019-05-25T11:09:14.723Z,24480.00
2019-05-25T11:10:14.699Z,23072.00
2019-05-25T11:11:14.679Z,21920.00
2019-05-25T11:12:14.657Z,21216.00
2019-05-25T11:13:14.634Z,20736.00
2019-05-25T11:14:14.614Z,20608.00
2019-05-25T11:15:14.594Z,21120.00
2019-05-25T11:16:14.578Z,21632.00
2019-05-25T11:17:14.550Z,21856.00
2019-05-25T11:18:14.533Z,22752.00
2019-05-25T11:19:14.509Z,23776.00
2019-05-25T11:20:14.501Z,24608.00
2019-05-25T11:21:14.498Z,25600.00
2019-05-25T11:22:14.444Z,27200.00
2019-05-25T11:23:14.423Z,29536.00
2019-05-25T11:24:14.400Z,31328.00
2019-05-25T11:25:14.379Z,32736.00
2019-05-25T11:26:14.366Z,35552.00
2019-05-25T11:27:14.339Z,39104.00
2019-05-25T11:28:14.316Z,40512.00
2019-05-25T11:29:14.294Z,39392.00
2019-05-25T11:30:14.273Z,38528.00
2019-05-25T11:31:14.273Z,36480.00
2019-05-25T11:32:14.242Z,33856.00
2019-05-25T11:33:14.210Z,31872.00
2019-05-25T11:34:14.189Z,30528.00
2019-05-25T11:35:14.168Z,28864.00
2019-05-25T11:36:14.148Z,26688.00
2019-05-25T11:37:15.756Z,24256.00
2019-05-25T11:38:14.104Z,22016.00
2019-05-25T11:39:14.117Z,20320.00
2019-05-25T11:40:14.113Z,19648.00
2019-05-25T11:41:14.042Z,19488.00
2019-05-25T11:42:14.022Z,19552.00
2019-05-25T11:43:14.002Z,19680.00
2019-05-25T11:44:14.039Z,19712.00
2019-05-25T11:45:13.959Z,19456.00
2019-05-25T11:46:13.938Z,19008.00
2019-05-25T11:47:13.916Z,18432.00
2019-05-25T11:48:13.897Z,18304.00
2019-05-25T11:49:22.251Z,18624.00
2019-05-25T11:50:13.904Z,19168.00
2019-05-25T11:51:13.998Z,19840.00
2019-05-25T11:52:13.813Z,20416.00
2019-05-25T11:53:13.789Z,20864.00
2019-05-25T11:54:13.768Z,21280.00
2019-05-25T11:55:13.753Z,21600.00
2019-05-25T11:56:13.726Z,21920.00
2019-05-25T11:57:13.709Z,22336.00
2019-05-25T11:58:13.683Z,22720.00
2019-05-25T11:59:13.661Z,22880.00
2019-05-25T12:00:24.410Z,22880.00
2019-05-25T12:01:13.626Z,22912.00
2019-05-25T12:02:13.597Z,22880.00
2019-05-25T12:03:13.581Z,22752.00
2019-05-25T12:04:13.563Z,22656.00
2019-05-25T12:05:13.529Z,22816.00
2019-05-25T12:06:13.513Z,22976.00
2019-05-25T12:07:13.488Z,23136.00
2019-05-25T12:08:13.468Z,23296.00
2019-05-25T12:09:13.443Z,23648.00
2019-05-25T12:10:13.425Z,24224.00